Townsend, Georgia
Current Conditions -  °F | °C
As of 9:15 AM on Saturday 01 Nov 2014 (Local Time) from KBQK Reporting Station
Clear Clear  
Wind Chill: 37°   Ceiling: Unl
Heat Index: 45°   Visibility: 10mi
Dew Point: 28°   Wind: 18mph
Humidity: 53%   Direction: 270°W
Pressure: 29.93"   Gusts: 24mph
Location:  31.54°N, 81.52°W
Report Text: KBQK 011315Z AUTO 27016G21KT 10SM CLR 07/M02 A2993 RMK AO1
Loading
Personal Weather Stations






























Interactive Weather Map
Tropical Storm Tracking
New forecast layout! Learn more

10-Day Weather Forecast

Advertisements
Track Severe Weather on mobile